Time;durP1;ratioP1;P1;durP2;ratioP2;P2;SDS_P1;SDS_P2;PMS_P1;PMS_P2;Temp;Humidity;BMP_temperature;BMP_pressure;BME280_temperature;BME280_humidity;BME280_pressure;Samples;Min_cycle;Max_cycle;Signal;HPM_P1;HPM_P2
2021/12/25 00:01:20;;;;;;;72.63;40.90;;;10.00;99.90;;;;;;5001243;28;20018;-84
2021/12/25 00:03:48;;;;;;;67.60;39.38;;;10.00;99.90;;;;;;5018630;28;20034;-84
2021/12/25 00:06:14;;;;;;;53.30;25.15;;;10.00;99.90;;;;;;5019044;28;20118;-85
2021/12/25 00:08:40;;;;;;;38.17;23.40;;;10.00;99.90;;;;;;5018345;28;20097;-84
2021/12/25 00:11:08;;;;;;;41.05;25.75;;;10.00;99.90;;;;;;5017397;28;20141;-84
2021/12/25 00:13:35;;;;;;;227.77;95.80;;;10.00;99.90;;;;;;5016777;28;20026;-83
2021/12/25 00:16:01;;;;;;;113.90;49.08;;;10.00;99.90;;;;;;5018660;28;20379;-85
2021/12/25 00:18:26;;;;;;;54.67;31.00;;;10.00;99.90;;;;;;5018381;28;20443;-84
2021/12/25 00:20:52;;;;;;;80.75;38.80;;;10.00;99.90;;;;;;5019980;28;20030;-84
2021/12/25 00:23:18;;;;;;;80.70;39.80;;;10.00;99.90;;;;;;5019257;28;20041;-84
2021/12/25 00:25:49;;;;;;;92.85;45.33;;;10.00;99.90;;;;;;5050702;28;20022;-84
2021/12/25 00:28:47;;;;;;;65.20;36.42;;;10.00;99.90;;;;;;5050204;28;20498;-84
2021/12/25 00:36:15;;;;;;;121.53;65.63;;;10.00;99.90;;;;;;5018239;28;20025;-86
2021/12/25 00:38:44;;;;;;;77.88;42.88;;;10.00;99.90;;;;;;5018243;28;20022;-86
2021/12/25 00:41:11;;;;;;;46.80;25.83;;;10.00;99.90;;;;;;5018201;28;20022;-85
2021/12/25 00:43:37;;;;;;;58.85;35.33;;;9.90;99.90;;;;;;5017779;28;20057;-84
2021/12/25 00:46:03;;;;;;;70.25;38.47;;;9.90;99.90;;;;;;5018157;28;20048;-85
2021/12/25 00:48:29;;;;;;;131.90;65.53;;;9.80;99.90;;;;;;5017955;28;20030;-84
2021/12/25 00:50:55;;;;;;;40.20;25.92;;;9.80;99.90;;;;;;5020863;28;20038;-85
2021/12/25 00:53:21;;;;;;;90.53;53.78;;;9.80;99.90;;;;;;5019164;28;20058;-84
2021/12/25 00:55:48;;;;;;;41.83;26.23;;;9.80;99.90;;;;;;5020318;28;20044;-84
2021/12/25 00:58:14;;;;;;;43.78;26.02;;;9.80;99.90;;;;;;5016959;28;20029;-85
2021/12/25 01:00:41;;;;;;;44.55;27.00;;;9.80;99.90;;;;;;5018504;28;20026;-84
2021/12/25 01:03:07;;;;;;;50.15;28.83;;;9.80;99.90;;;;;;5018198;28;20394;-84
2021/12/25 01:05:33;;;;;;;43.28;25.88;;;9.80;99.90;;;;;;5017803;28;20040;-85
2021/12/25 01:07:59;;;;;;;43.47;26.58;;;9.80;99.90;;;;;;5018276;28;20132;-85
2021/12/25 01:10:25;;;;;;;45.42;24.92;;;9.80;99.90;;;;;;5017813;28;20022;-84
2021/12/25 01:15:53;;;;;;;42.67;27.27;;;9.70;99.90;;;;;;5017741;28;20080;-85
2021/12/25 01:37:23;;;;;;;42.10;27.38;;;9.60;99.90;;;;;;5027807;28;20045;-86
2021/12/25 01:47:51;;;;;;;51.92;29.05;;;9.60;99.90;;;;;;5021092;28;20109;-85
2021/12/25 01:50:28;;;;;;;50.10;27.08;;;9.60;99.90;;;;;;5021257;28;20036;-85
2021/12/25 01:52:55;;;;;;;48.20;26.48;;;9.60;99.90;;;;;;5014609;28;20030;-84
2021/12/25 01:55:29;;;;;;;46.17;27.67;;;9.60;99.90;;;;;;5014318;28;20105;-86
2021/12/25 01:57:58;;;;;;;46.05;27.52;;;9.60;99.90;;;;;;5020859;28;20022;-85
2021/12/25 02:00:32;;;;;;;44.10;27.38;;;9.60;99.90;;;;;;5021112;28;20054;-86
2021/12/25 02:02:59;;;;;;;50.33;26.52;;;9.50;99.90;;;;;;5021176;28;20022;-85
2021/12/25 02:05:24;;;;;;;52.63;28.58;;;9.50;99.90;;;;;;5030754;28;20405;-84
2021/12/25 02:07:50;;;;;;;44.65;27.63;;;9.50;99.90;;;;;;5020126;28;20042;-84
2021/12/25 02:10:18;;;;;;;48.28;27.45;;;9.60;99.90;;;;;;5036192;28;20029;-84
2021/12/25 02:12:45;;;;;;;45.72;26.85;;;9.50;99.90;;;;;;5040270;28;20022;-85
2021/12/25 02:15:16;;;;;;;49.53;28.20;;;9.50;99.90;;;;;;5039846;28;20029;-86
2021/12/25 02:18:10;;;;;;;41.78;26.08;;;9.50;99.90;;;;;;5040696;28;20021;-86
2021/12/25 02:21:19;;;;;;;43.80;26.10;;;9.50;99.90;;;;;;5033690;28;20080;-85
2021/12/25 02:23:24;;;;;;;47.08;27.58;;;9.50;99.90;;;;;;5022496;28;20524;-84
2021/12/25 02:25:54;;;;;;;52.83;27.33;;;9.50;99.90;;;;;;5020508;28;20109;-85
2021/12/25 02:28:20;;;;;;;50.50;27.73;;;9.40;99.90;;;;;;5019804;28;20025;-84
2021/12/25 02:30:48;;;;;;;49.15;29.63;;;9.40;99.90;;;;;;5031432;28;20029;-84
2021/12/25 02:33:16;;;;;;;50.20;28.13;;;9.40;99.90;;;;;;5034162;28;20022;-84
2021/12/25 02:35:42;;;;;;;49.90;30.55;;;9.40;99.90;;;;;;5019508;28;20032;-84
2021/12/25 02:38:08;;;;;;;51.13;28.80;;;9.40;99.90;;;;;;5020070;28;20041;-83
2021/12/25 02:40:34;;;;;;;49.80;29.05;;;9.40;99.90;;;;;;5018499;28;20371;-84
2021/12/25 02:43:00;;;;;;;48.83;28.80;;;9.30;99.90;;;;;;5036760;28;20428;-84
2021/12/25 02:45:27;;;;;;;51.22;29.65;;;9.30;99.90;;;;;;5038522;28;20485;-85
2021/12/25 02:47:56;;;;;;;55.28;30.40;;;9.20;99.90;;;;;;5037721;28;20061;-84
2021/12/25 02:50:31;;;;;;;51.70;31.60;;;9.20;99.90;;;;;;5038618;28;20029;-84
2021/12/25 02:52:59;;;;;;;59.00;32.20;;;9.10;99.90;;;;;;5039690;28;20393;-85
2021/12/25 02:55:26;;;;;;;56.10;32.85;;;9.20;99.90;;;;;;5021841;28;20061;-85
2021/12/25 02:57:52;;;;;;;56.40;33.25;;;9.10;99.90;;;;;;5019616;28;20018;-84
2021/12/25 03:00:31;;;;;;;49.17;29.05;;;9.10;99.90;;;;;;5019922;28;20014;-84
2021/12/25 03:02:57;;;;;;;60.47;32.60;;;9.10;99.90;;;;;;5019755;28;20045;-85
2021/12/25 03:05:24;;;;;;;50.17;28.88;;;9.10;99.90;;;;;;5018367;28;20077;-84
2021/12/25 03:07:50;;;;;;;60.70;30.90;;;9.00;99.90;;;;;;5018152;28;20046;-84
2021/12/25 03:10:17;;;;;;;57.30;30.13;;;9.00;99.90;;;;;;5019457;28;20078;-84
2021/12/25 03:12:53;;;;;;;57.90;30.33;;;8.90;99.90;;;;;;5019262;28;20026;-84
2021/12/25 03:15:30;;;;;;;48.95;28.92;;;8.80;99.90;;;;;;5018172;28;20026;-84
2021/12/25 03:17:57;;;;;;;46.90;26.80;;;8.80;99.90;;;;;;5018179;28;20025;-84
2021/12/25 03:20:23;;;;;;;61.97;29.80;;;8.80;99.90;;;;;;5019373;28;20037;-84
2021/12/25 03:22:50;;;;;;;55.97;28.63;;;8.70;99.90;;;;;;5018283;28;20025;-84
2021/12/25 03:25:17;;;;;;;50.38;28.45;;;8.70;99.90;;;;;;5017118;28;20121;-84
2021/12/25 03:27:45;;;;;;;48.40;27.05;;;8.60;99.90;;;;;;5017727;28;20033;-83
2021/12/25 03:30:15;;;;;;;50.10;28.45;;;8.60;99.90;;;;;;5018904;28;20465;-83
2021/12/25 03:32:41;;;;;;;46.92;26.20;;;8.50;99.90;;;;;;5019178;28;20029;-84
2021/12/25 03:35:07;;;;;;;46.35;26.67;;;8.50;99.90;;;;;;5019134;28;20490;-84
2021/12/25 03:37:32;;;;;;;49.22;26.95;;;8.50;99.90;;;;;;5017900;28;20570;-85
2021/12/25 03:39:58;;;;;;;46.95;28.00;;;8.50;99.90;;;;;;5017891;28;20026;-85
2021/12/25 03:42:24;;;;;;;45.65;26.98;;;8.40;99.90;;;;;;5019031;28;20478;-84
2021/12/25 03:44:50;;;;;;;47.10;26.92;;;8.40;99.90;;;;;;5019012;28;20030;-84
2021/12/25 03:47:30;;;;;;;45.75;24.40;;;8.30;99.90;;;;;;5018964;28;20129;-85
2021/12/25 03:58:23;;;;;;;42.55;25.65;;;8.00;99.90;;;;;;5037604;28;20075;-84
2021/12/25 04:00:50;;;;;;;45.33;25.35;;;7.90;99.90;;;;;;5038070;28;20021;-84
2021/12/25 04:03:27;;;;;;;41.28;24.85;;;7.90;99.90;;;;;;5038716;28;20030;-84
2021/12/25 04:05:53;;;;;;;46.92;26.67;;;7.80;99.90;;;;;;5038594;28;20037;-85
2021/12/25 04:08:23;;;;;;;42.95;26.70;;;7.80;99.90;;;;;;5038182;28;20048;-84
2021/12/25 04:10:53;;;;;;;53.75;27.27;;;7.70;99.90;;;;;;5038514;28;20061;-84
2021/12/25 04:13:19;;;;;;;52.77;27.17;;;7.70;99.90;;;;;;5038056;28;20025;-84
2021/12/25 04:15:46;;;;;;;48.38;25.50;;;7.60;99.90;;;;;;5036866;28;20024;-84
2021/12/25 04:18:12;;;;;;;49.45;27.83;;;7.50;99.90;;;;;;5036993;28;20056;-84
2021/12/25 04:20:38;;;;;;;48.15;27.98;;;7.40;99.90;;;;;;5037966;28;20022;-84
2021/12/25 04:23:12;;;;;;;52.28;25.80;;;7.40;99.90;;;;;;5035875;28;20064;-84
2021/12/25 04:25:38;;;;;;;48.60;26.02;;;7.30;99.90;;;;;;5049510;28;20034;-84
2021/12/25 04:28:29;;;;;;;52.55;28.17;;;7.30;99.90;;;;;;5016430;28;20080;-84
2021/12/25 04:50:22;;;;;;;52.67;25.92;;;7.10;99.90;;;;;;5018155;28;20044;-83
2021/12/25 05:06:01;;;;;;;53.20;30.65;;;6.90;99.90;;;;;;5037607;28;20048;-85
2021/12/25 05:08:27;;;;;;;63.55;32.42;;;6.90;99.90;;;;;;5037151;28;20137;-84
2021/12/25 05:10:54;;;;;;;68.22;32.75;;;6.80;99.90;;;;;;5029014;28;20065;-84
2021/12/25 05:13:20;;;;;;;60.70;31.27;;;6.80;99.90;;;;;;5017049;28;20018;-84
2021/12/25 05:15:47;;;;;;;60.55;30.45;;;6.80;99.90;;;;;;5017571;28;20029;-84
2021/12/25 05:18:13;;;;;;;57.55;29.88;;;6.80;99.90;;;;;;5017385;28;20057;-83
2021/12/25 05:20:39;;;;;;;59.65;28.20;;;6.80;99.90;;;;;;5017415;28;20390;-83
2021/12/25 05:23:05;;;;;;;70.35;29.10;;;6.80;99.90;;;;;;5015645;28;20022;-83
2021/12/25 05:25:33;;;;;;;67.72;30.63;;;6.70;99.90;;;;;;5023886;28;20091;-83
2021/12/25 05:28:00;;;;;;;62.40;29.58;;;6.70;99.90;;;;;;5031332;28;20548;-84
2021/12/25 05:30:26;;;;;;;68.93;32.25;;;6.70;99.90;;;;;;5037146;28;20048;-83
2021/12/25 05:32:52;;;;;;;62.15;30.77;;;6.70;99.90;;;;;;5036890;28;20022;-84
2021/12/25 05:35:17;;;;;;;63.80;31.98;;;6.80;99.90;;;;;;5029963;28;20493;-84
2021/12/25 05:37:43;;;;;;;62.03;31.23;;;6.80;99.90;;;;;;5017259;28;20118;-83
2021/12/25 05:40:12;;;;;;;59.63;28.85;;;6.80;99.90;;;;;;5016042;28;20505;-84
2021/12/25 05:42:37;;;;;;;72.30;31.98;;;6.70;99.90;;;;;;5016991;28;20014;-83
2021/12/25 05:45:04;;;;;;;71.68;31.45;;;6.70;99.90;;;;;;5016217;28;20036;-84
2021/12/25 05:47:30;;;;;;;66.97;30.70;;;6.80;99.90;;;;;;5012106;28;20026;-83
2021/12/25 05:49:55;;;;;;;60.85;28.98;;;6.90;99.90;;;;;;5016382;28;20157;-84
2021/12/25 05:52:21;;;;;;;57.55;29.58;;;6.90;99.90;;;;;;5017238;28;20042;-84
2021/12/25 05:54:47;;;;;;;60.35;29.80;;;6.80;99.90;;;;;;5037069;28;20037;-83
2021/12/25 05:57:13;;;;;;;62.50;29.63;;;6.80;99.90;;;;;;5036375;28;20393;-83
2021/12/25 05:59:39;;;;;;;56.85;30.50;;;6.80;99.90;;;;;;5035942;28;20385;-83
2021/12/25 06:02:05;;;;;;;69.18;32.88;;;6.90;99.90;;;;;;5028763;28;20033;-83
2021/12/25 06:04:30;;;;;;;66.72;31.17;;;6.80;99.90;;;;;;5016042;28;20398;-83
2021/12/25 06:06:56;;;;;;;69.32;32.15;;;6.90;99.90;;;;;;5016962;28;20034;-83
2021/12/25 06:09:22;;;;;;;72.30;31.95;;;6.90;99.90;;;;;;5015757;28;20034;-84
2021/12/25 06:11:48;;;;;;;61.33;30.65;;;6.90;99.90;;;;;;5016846;28;20029;-84
2021/12/25 06:14:19;;;;;;;71.85;28.95;;;7.00;99.90;;;;;;5015415;28;20037;-83
2021/12/25 06:16:46;;;;;;;60.58;29.05;;;7.00;99.90;;;;;;5015914;28;20033;-84
2021/12/25 06:19:11;;;;;;;52.03;25.73;;;6.90;99.90;;;;;;5015824;28;20026;-83
2021/12/25 06:21:37;;;;;;;53.28;28.98;;;6.80;99.90;;;;;;5017014;28;20025;-83
2021/12/25 06:24:05;;;;;;;51.33;26.02;;;6.80;99.90;;;;;;5020196;28;20034;-83
2021/12/25 06:26:31;;;;;;;62.25;29.95;;;6.80;99.90;;;;;;5018694;28;20029;-85
2021/12/25 06:28:57;;;;;;;66.43;32.38;;;6.70;99.90;;;;;;5043848;28;20053;-84
2021/12/25 06:31:24;;;;;;;72.93;33.65;;;6.80;99.90;;;;;;5017515;28;20021;-83
2021/12/25 06:33:50;;;;;;;63.00;32.67;;;6.80;99.90;;;;;;5051780;28;20033;-83
2021/12/25 06:36:16;;;;;;;78.88;35.15;;;6.80;99.90;;;;;;5017936;28;20587;-84
2021/12/25 06:38:42;;;;;;;67.38;31.67;;;6.80;99.90;;;;;;5017918;28;20105;-83
2021/12/25 06:41:10;;;;;;;62.72;30.38;;;6.80;99.90;;;;;;5019352;28;20018;-83
2021/12/25 06:43:36;;;;;;;56.97;28.67;;;6.70;99.90;;;;;;5018553;28;20030;-83
2021/12/25 06:46:02;;;;;;;66.30;31.17;;;6.60;99.90;;;;;;5019487;28;20397;-83
2021/12/25 06:48:30;;;;;;;63.65;31.55;;;6.60;99.90;;;;;;5019578;28;20022;-83
2021/12/25 06:50:55;;;;;;;58.03;30.52;;;6.60;99.90;;;;;;5051097;28;20402;-83
2021/12/25 06:53:21;;;;;;;64.57;31.08;;;6.60;99.90;;;;;;5019311;28;20022;-83
2021/12/25 06:55:47;;;;;;;60.70;29.50;;;6.60;99.90;;;;;;5019144;28;20010;-84
2021/12/25 06:58:13;;;;;;;60.33;29.17;;;6.60;99.90;;;;;;5015579;28;20019;-84
2021/12/25 07:00:39;;;;;;;54.22;29.38;;;6.60;99.90;;;;;;5019139;28;20041;-84
2021/12/25 07:03:05;;;;;;;64.85;32.70;;;6.60;99.90;;;;;;5050974;28;20030;-83
2021/12/25 07:05:31;;;;;;;75.70;32.70;;;6.60;99.90;;;;;;5064250;28;20068;-83
2021/12/25 07:07:56;;;;;;;69.13;32.40;;;6.60;99.90;;;;;;5026997;28;20472;-80
2021/12/25 07:10:23;;;;;;;61.08;31.60;;;6.70;99.90;;;;;;5019478;28;20064;-79
2021/12/25 07:12:52;;;;;;;76.93;34.22;;;6.70;99.90;;;;;;5019064;28;20139;-79
2021/12/25 07:15:18;;;;;;;73.15;33.47;;;6.70;99.90;;;;;;5017487;28;20030;-79
2021/12/25 07:17:44;;;;;;;73.03;33.63;;;6.80;99.90;;;;;;5019555;28;20025;-79
2021/12/25 07:20:10;;;;;;;70.80;33.45;;;6.70;99.90;;;;;;5019168;28;20153;-79
2021/12/25 07:22:36;;;;;;;61.28;30.30;;;6.70;99.90;;;;;;5019505;28;20045;-79
2021/12/25 07:25:03;;;;;;;64.88;32.22;;;6.70;99.90;;;;;;5019214;28;20532;-79
2021/12/25 07:27:29;;;;;;;63.10;31.15;;;6.60;99.90;;;;;;5018899;28;20025;-80
2021/12/25 07:29:55;;;;;;;60.75;30.35;;;6.60;99.90;;;;;;5019069;28;20100;-80
2021/12/25 07:32:20;;;;;;;67.00;32.20;;;6.70;99.90;;;;;;5019093;28;20022;-80
2021/12/25 07:34:47;;;;;;;72.30;32.60;;;6.70;99.90;;;;;;5017446;28;20018;-79
2021/12/25 07:37:14;;;;;;;80.20;38.47;;;6.80;99.90;;;;;;5019091;28;20026;-80
2021/12/25 07:39:44;;;;;;;67.97;33.35;;;6.90;99.90;;;;;;5017611;28;20029;-80
2021/12/25 07:42:10;;;;;;;63.28;31.45;;;6.90;99.90;;;;;;5015903;28;20486;-80
2021/12/25 07:44:36;;;;;;;69.78;33.50;;;6.90;99.90;;;;;;5018018;28;20026;-80
2021/12/25 07:47:08;;;;;;;89.10;52.28;;;6.80;99.90;;;;;;5018105;28;20043;-80
2021/12/25 07:49:33;;;;;;;81.03;43.15;;;6.80;99.90;;;;;;5017992;28;20097;-80
2021/12/25 07:51:59;;;;;;;72.63;36.55;;;6.80;99.90;;;;;;5050459;28;20490;-80
2021/12/25 07:54:25;;;;;;;56.97;32.28;;;6.80;99.90;;;;;;5017944;28;20025;-80
2021/12/25 07:56:51;;;;;;;63.55;33.17;;;6.80;99.90;;;;;;5017969;28;20057;-80
2021/12/25 07:59:16;;;;;;;54.67;28.02;;;6.80;99.90;;;;;;5017823;28;20060;-80
2021/12/25 08:01:42;;;;;;;47.08;26.58;;;6.80;99.90;;;;;;5049861;28;20024;-80
2021/12/25 08:04:10;;;;;;;44.17;26.38;;;6.80;99.90;;;;;;5049729;28;20037;-80
2021/12/25 08:06:36;;;;;;;59.05;31.92;;;6.80;99.90;;;;;;5018042;28;20017;-80
2021/12/25 08:09:04;;;;;;;59.20;31.75;;;6.80;99.90;;;;;;5017758;28;20093;-80
2021/12/25 08:11:30;;;;;;;48.55;28.30;;;6.80;99.90;;;;;;5017747;28;20064;-80
2021/12/25 08:13:56;;;;;;;49.03;26.88;;;6.80;99.90;;;;;;5016924;28;20048;-80
2021/12/25 08:16:22;;;;;;;50.15;28.75;;;6.80;99.90;;;;;;5017844;28;20064;-80
2021/12/25 08:18:48;;;;;;;54.13;29.70;;;6.80;99.90;;;;;;5017662;28;20018;-80
2021/12/25 08:21:14;;;;;;;55.85;30.45;;;6.80;99.90;;;;;;5014300;28;20033;-80
2021/12/25 08:23:40;;;;;;;54.38;30.13;;;6.90;99.90;;;;;;5017307;28;20044;-79
2021/12/25 08:26:07;;;;;;;49.85;28.23;;;6.90;99.90;;;;;;5015644;28;20445;-80
2021/12/25 08:28:33;;;;;;;52.65;29.17;;;6.90;99.90;;;;;;5014987;28;20105;-79
2021/12/25 08:30:59;;;;;;;48.28;28.92;;;7.10;99.90;;;;;;5037660;28;20057;-79
2021/12/25 08:33:25;;;;;;;52.42;27.92;;;7.10;99.90;;;;;;5038890;28;20022;-79
2021/12/25 08:35:51;;;;;;;48.28;27.55;;;7.20;99.90;;;;;;5046812;28;20165;-79
2021/12/25 08:38:17;;;;;;;51.20;30.35;;;7.40;99.90;;;;;;5017151;28;20026;-80
2021/12/25 08:40:43;;;;;;;48.05;28.92;;;7.60;99.90;;;;;;5016637;28;20028;-80
2021/12/25 08:43:10;;;;;;;107.28;45.85;;;7.70;99.90;;;;;;5015729;28;20040;-80
2021/12/25 08:48:18;;;;;;;39.47;27.83;;;8.00;99.90;;;;;;5016604;28;20109;-80
2021/12/25 08:50:49;;;;;;;43.75;26.13;;;8.10;99.90;;;;;;5014348;28;20053;-80
2021/12/25 08:53:15;;;;;;;39.78;24.60;;;8.20;99.90;;;;;;5016733;28;20041;-83
2021/12/25 08:55:42;;;;;;;36.50;25.35;;;8.20;99.90;;;;;;5017194;28;20021;-81
2021/12/25 08:58:08;;;;;;;153.85;64.68;;;8.30;99.90;;;;;;5017113;28;20018;-81
2021/12/25 09:00:34;;;;;;;502.67;267.17;;;8.20;99.90;;;;;;5017189;28;20089;-81
2021/12/25 09:03:00;;;;;;;84.60;44.67;;;8.20;99.90;;;;;;5052584;28;20030;-81
2021/12/25 09:05:26;;;;;;;54.40;32.58;;;8.20;99.90;;;;;;5049317;28;20029;-80
2021/12/25 09:07:51;;;;;;;149.50;67.90;;;8.20;99.90;;;;;;5016876;28;20100;-82
2021/12/25 09:10:18;;;;;;;580.13;266.27;;;8.10;99.90;;;;;;5031588;28;20029;-80
2021/12/25 09:12:45;;;;;;;667.60;305.48;;;8.10;99.90;;;;;;5032230;28;20032;-81
2021/12/25 09:15:12;;;;;;;294.60;114.18;;;8.10;99.90;;;;;;5016518;28;20036;-81
2021/12/25 09:17:38;;;;;;;137.15;63.72;;;8.20;99.90;;;;;;5015649;28;20026;-83
2021/12/25 09:20:06;;;;;;;89.93;46.80;;;8.20;99.90;;;;;;5016297;28;20030;-81
2021/12/25 09:22:31;;;;;;;60.90;35.35;;;8.30;99.90;;;;;;5018108;28;20072;-81
2021/12/25 09:24:58;;;;;;;46.40;28.67;;;8.40;99.90;;;;;;5012463;28;20030;-81
2021/12/25 09:27:23;;;;;;;41.65;27.60;;;8.50;99.90;;;;;;5016014;28;20038;-82
2021/12/25 09:29:49;;;;;;;65.65;34.67;;;8.60;99.90;;;;;;5016180;28;20101;-81
2021/12/25 09:32:15;;;;;;;358.38;117.43;;;8.60;99.90;;;;;;5016468;28;20029;-79
2021/12/25 09:34:42;;;;;;;44.65;25.00;;;8.70;99.90;;;;;;5015630;28;20433;-81
2021/12/25 09:37:07;;;;;;;44.83;28.48;;;8.70;99.90;;;;;;5016854;28;20551;-80
2021/12/25 09:39:34;;;;;;;42.78;25.42;;;8.70;99.90;;;;;;5016659;28;20159;-81
2021/12/25 09:42:00;;;;;;;45.50;27.88;;;8.80;99.90;;;;;;5014761;28;20029;-81
2021/12/25 09:44:26;;;;;;;47.58;28.08;;;8.80;99.90;;;;;;5015657;28;20030;-79
2021/12/25 09:46:52;;;;;;;63.70;32.03;;;8.90;99.90;;;;;;5017011;28;20458;-81
2021/12/25 09:49:18;;;;;;;42.97;25.23;;;8.90;99.90;;;;;;5017193;28;20029;-84
2021/12/25 09:51:44;;;;;;;39.78;26.63;;;8.90;99.90;;;;;;5028967;28;20101;-83
2021/12/25 09:54:14;;;;;;;59.25;33.38;;;9.00;99.90;;;;;;5015763;28;20030;-80
2021/12/25 09:56:42;;;;;;;52.90;29.08;;;9.00;99.90;;;;;;5015847;28;20022;-81
2021/12/25 09:59:12;;;;;;;272.23;93.20;;;8.90;99.90;;;;;;5019635;28;20033;-82
2021/12/25 10:01:53;;;;;;;249.07;85.25;;;9.00;99.90;;;;;;5050466;28;20033;-82
2021/12/25 10:04:48;;;;;;;;;;;8.90;99.90;;;;;;5020283;28;20045;-83
2021/12/25 10:07:16;;;;;;;646.35;248.52;;;9.00;99.90;;;;;;5024530;28;19913;-81
2021/12/25 10:09:52;;;;;;;59.38;29.50;;;9.10;99.90;;;;;;5014774;28;20053;-82
2021/12/25 10:12:18;;;;;;;38.63;22.60;;;9.20;99.90;;;;;;5027714;28;20030;-82
2021/12/25 10:14:52;;;;;;;101.05;38.90;;;9.40;99.90;;;;;;5024221;28;20795;-82
2021/12/25 10:17:29;;;;;;;207.25;64.30;;;9.60;99.90;;;;;;5038193;28;20052;-82
2021/12/25 10:20:03;;;;;;;1022.17;392.38;;;9.70;99.90;;;;;;5020145;28;20072;-85
2021/12/25 10:22:29;;;;;;;81.88;33.55;;;9.90;99.90;;;;;;5037801;28;20021;-77
2021/12/25 10:25:15;;;;;;;57.58;29.48;;;9.90;99.90;;;;;;5040030;28;20041;-77
2021/12/25 10:27:56;;;;;;;48.03;23.60;;;9.90;99.90;;;;;;5017934;28;20057;-77
2021/12/25 10:30:22;;;;;;;43.33;22.88;;;10.00;99.90;;;;;;5019684;28;20041;-79
2021/12/25 10:32:48;;;;;;;34.90;19.17;;;10.10;99.90;;;;;;5020309;28;20025;-79
2021/12/25 10:35:37;;;;;;;39.70;20.80;;;10.10;99.90;;;;;;5019971;28;20022;-79
2021/12/25 10:38:11;;;;;;;30.67;17.83;;;10.20;99.90;;;;;;5018813;28;20049;-78
2021/12/25 10:40:37;;;;;;;31.05;18.70;;;10.20;99.90;;;;;;5018734;28;20538;-78
2021/12/25 10:43:04;;;;;;;35.03;20.30;;;10.30;99.90;;;;;;5019647;28;20065;-77
2021/12/25 10:45:31;;;;;;;31.45;18.38;;;10.30;99.90;;;;;;5019878;28;20469;-77
2021/12/25 10:48:05;;;;;;;30.77;16.98;;;10.40;99.90;;;;;;5018530;28;20033;-77
2021/12/25 10:50:41;;;;;;;30.40;17.40;;;10.40;99.90;;;;;;5019883;28;20018;-77
2021/12/25 10:53:27;;;;;;;27.10;16.45;;;10.40;99.90;;;;;;5019918;28;20080;-78
2021/12/25 10:56:03;;;;;;;28.67;17.48;;;10.50;99.90;;;;;;5019761;28;20025;-78
2021/12/25 10:58:28;;;;;;;41.40;22.40;;;10.50;99.90;;;;;;5019611;28;20033;-78
2021/12/25 11:00:56;;;;;;;46.95;25.60;;;10.50;99.90;;;;;;5019664;28;20022;-78
2021/12/25 11:03:31;;;;;;;82.80;35.38;;;10.60;99.90;;;;;;5018741;28;20083;-78
2021/12/25 11:06:05;;;;;;;190.20;85.20;;;10.70;99.90;;;;;;5018286;28;20038;-78
2021/12/25 11:08:31;;;;;;;29.73;17.88;;;10.80;99.90;;;;;;5018838;28;20054;-78
2021/12/25 11:11:02;;;;;;;35.90;19.98;;;11.00;99.90;;;;;;5005329;28;20037;-78
2021/12/25 11:13:35;;;;;;;77.45;40.88;;;11.00;99.90;;;;;;5019191;28;20030;-78
2021/12/25 11:16:16;;;;;;;126.93;65.47;;;11.00;99.90;;;;;;5019562;28;20033;-78
2021/12/25 11:19:14;;;;;;;162.65;91.57;;;11.00;99.90;;;;;;5019311;28;20076;-78
2021/12/25 11:21:51;;;;;;;40.95;25.75;;;11.10;99.90;;;;;;5019611;28;20022;-78
2021/12/25 11:24:20;;;;;;;193.27;117.32;;;11.30;99.90;;;;;;5017963;28;20493;-78
2021/12/25 11:26:49;;;;;;;216.05;139.20;;;11.30;99.90;;;;;;5018979;28;20022;-78
2021/12/25 11:29:18;;;;;;;44.92;29.20;;;11.40;99.90;;;;;;5018398;28;20038;-78
2021/12/25 11:31:45;;;;;;;35.70;20.20;;;11.40;99.90;;;;;;5019315;28;20494;-78
2021/12/25 11:34:11;;;;;;;89.10;61.92;;;11.40;99.90;;;;;;5018990;28;20091;-78
2021/12/25 11:36:45;;;;;;;59.85;40.10;;;11.30;99.90;;;;;;5018837;28;20022;-78
2021/12/25 11:39:11;;;;;;;36.65;21.98;;;11.30;99.90;;;;;;5019211;28;20049;-78
2021/12/25 11:41:39;;;;;;;34.40;20.55;;;11.30;99.90;;;;;;5018392;28;20048;-77
2021/12/25 11:44:25;;;;;;;33.95;20.02;;;11.40;99.90;;;;;;5018152;28;20092;-77
2021/12/25 11:46:50;;;;;;;91.70;63.00;;;11.50;99.90;;;;;;5018285;28;20018;-77
2021/12/25 11:49:16;;;;;;;47.25;27.73;;;11.50;99.90;;;;;;5018279;28;20496;-77
2021/12/25 11:51:44;;;;;;;84.05;56.05;;;11.60;99.90;;;;;;5015647;28;20077;-77
2021/12/25 11:54:43;;;;;;;28.58;18.20;;;11.70;99.90;;;;;;5049327;28;20057;-77
2021/12/25 11:59:46;;;;;;;76.80;53.50;;;11.90;99.90;;;;;;5001295;28;20587;-77
2021/12/25 12:02:32;;;;;;;32.83;20.23;;;12.10;99.90;;;;;;5031883;28;20022;-77
2021/12/25 12:05:17;;;;;;;39.72;26.58;;;12.00;99.90;;;;;;5000456;28;20019;-77
2021/12/25 12:07:56;;;;;;;29.63;15.93;;;12.10;99.90;;;;;;5001162;28;20042;-77
2021/12/25 12:10:57;;;;;;;32.90;18.60;;;12.10;99.90;;;;;;4999889;28;20031;-77
2021/12/25 12:13:27;;;;;;;33.80;21.88;;;12.00;99.90;;;;;;5004423;28;20053;-77
2021/12/25 12:15:56;;;;;;;29.15;19.00;;;12.00;99.90;;;;;;5003484;28;20029;-77
2021/12/25 12:18:27;;;;;;;37.45;25.25;;;12.10;99.90;;;;;;4998080;28;20411;-77
2021/12/25 12:21:04;;;;;;;34.42;23.98;;;12.10;99.90;;;;;;5001492;28;20116;-77
2021/12/25 12:26:12;;;;;;;25.88;16.85;;;12.20;99.90;;;;;;5000095;28;20057;-75
2021/12/25 12:28:47;;;;;;;23.25;17.05;;;12.20;99.90;;;;;;5031617;28;20090;-75
2021/12/25 12:31:34;;;;;;;24.92;16.27;;;12.20;99.90;;;;;;4998562;28;20080;-74
2021/12/25 12:34:01;;;;;;;26.38;17.20;;;12.20;99.90;;;;;;4999575;28;20426;-73
2021/12/25 12:36:27;;;;;;;20.80;15.57;;;12.10;99.90;;;;;;5035309;28;20014;-72
2021/12/25 12:39:12;;;;;;;25.45;16.25;;;12.20;99.90;;;;;;5003225;28;20026;-77
2021/12/25 12:41:49;;;;;;;25.77;16.50;;;12.20;99.90;;;;;;5045727;28;20120;-77
2021/12/25 12:44:24;;;;;;;23.25;15.80;;;12.20;99.90;;;;;;5016332;28;20104;-77
2021/12/25 12:46:50;;;;;;;29.45;21.70;;;12.30;99.90;;;;;;5017617;28;20506;-77
2021/12/25 12:49:20;;;;;;;21.25;15.65;;;12.30;99.90;;;;;;5017564;28;20034;-74
2021/12/25 12:51:49;;;;;;;20.00;14.80;;;12.30;99.90;;;;;;5017256;28;20159;-74
2021/12/25 12:54:42;;;;;;;65.40;49.25;;;12.30;99.90;;;;;;5016305;28;20018;-74
2021/12/25 12:57:08;;;;;;;19.20;13.68;;;12.30;99.90;;;;;;5015892;28;20057;-74
2021/12/25 13:00:13;;;;;;;25.08;17.67;;;12.30;99.90;;;;;;5017400;28;20026;-74
2021/12/25 13:02:43;;;;;;;37.70;27.90;;;12.30;99.90;;;;;;5016441;28;20109;-75
2021/12/25 13:05:10;;;;;;;28.73;19.58;;;12.30;99.90;;;;;;5016896;28;20030;-74
2021/12/25 13:07:39;;;;;;;43.05;32.63;;;12.30;99.90;;;;;;5017128;28;20060;-74
2021/12/25 13:10:37;;;;;;;17.00;13.07;;;12.20;99.90;;;;;;5017502;28;20093;-74
2021/12/25 13:13:11;;;;;;;19.90;13.73;;;12.10;99.90;;;;;;5016842;28;20457;-74
2021/12/25 13:15:38;;;;;;;18.70;13.23;;;12.00;99.90;;;;;;5016134;28;20026;-77
2021/12/25 13:18:05;;;;;;;18.48;13.52;;;11.90;99.90;;;;;;5015835;28;20102;-77
2021/12/25 13:20:50;;;;;;;15.57;11.88;;;11.90;99.90;;;;;;5015723;28;20022;-77
2021/12/25 13:23:25;;;;;;;18.48;12.70;;;11.80;99.90;;;;;;5016227;28;20026;-74
2021/12/25 13:25:56;;;;;;;20.42;13.90;;;11.80;99.90;;;;;;5016967;28;20077;-74
2021/12/25 13:28:24;;;;;;;22.17;13.98;;;11.80;99.90;;;;;;5048317;28;20057;-77
2021/12/25 13:30:59;;;;;;;17.42;12.57;;;11.80;99.90;;;;;;5017556;28;20022;-77
2021/12/25 13:33:27;;;;;;;16.83;12.50;;;11.90;99.90;;;;;;5021131;28;20117;-77
2021/12/25 13:36:11;;;;;;;52.90;35.17;;;12.00;99.90;;;;;;5020196;28;20367;-77
2021/12/25 13:38:45;;;;;;;160.55;97.80;;;12.20;99.90;;;;;;5021003;28;20022;-75
2021/12/25 13:41:11;;;;;;;32.97;21.15;;;12.40;99.90;;;;;;5020140;28;20022;-77
2021/12/25 13:43:37;;;;;;;20.17;15.02;;;12.40;99.90;;;;;;5019698;28;20030;-77
2021/12/25 13:46:03;;;;;;;18.10;12.85;;;12.50;99.90;;;;;;5021313;28;20026;-77
2021/12/25 13:48:37;;;;;;;49.00;31.15;;;12.60;99.90;;;;;;5019854;28;20060;-75
2021/12/25 13:51:03;;;;;;;51.85;30.80;;;12.80;99.90;;;;;;5019553;28;20033;-75
2021/12/25 13:53:31;;;;;;;67.70;41.03;;;13.00;99.90;;;;;;5020931;28;20544;-75
2021/12/25 13:56:05;;;;;;;54.15;33.95;;;13.00;99.90;;;;;;5021135;28;20018;-75
2021/12/25 13:58:30;;;;;;;17.90;13.77;;;13.10;99.90;;;;;;5020579;28;20394;-74
2021/12/25 14:00:56;;;;;;;15.90;12.35;;;13.10;99.90;;;;;;5020419;28;20022;-77
2021/12/25 14:03:25;;;;;;;16.13;12.35;;;13.30;99.90;;;;;;5019424;28;20033;-77
2021/12/25 14:05:53;;;;;;;15.45;12.07;;;13.20;99.90;;;;;;5019346;28;20093;-77
2021/12/25 14:08:24;;;;;;;17.13;12.40;;;13.20;99.90;;;;;;5020635;28;20049;-77